createdAt,value
2018-10-19T00:01:41.731Z,10.23
2018-10-19T00:04:09.463Z,9.50
2018-10-19T00:06:37.743Z,8.47
2018-10-19T00:09:07.588Z,9.77
2018-10-19T00:11:35.312Z,12.63
2018-10-19T00:14:03.285Z,8.77
2018-10-19T00:16:30.984Z,9.60
2018-10-19T00:18:58.704Z,10.83
2018-10-19T00:21:26.349Z,10.60
2018-10-19T00:23:54.072Z,11.63
2018-10-19T00:26:23.069Z,10.03
2018-10-19T00:28:50.770Z,12.87
2018-10-19T00:31:18.465Z,9.53
2018-10-19T00:33:46.129Z,12.90
2018-10-19T00:36:13.875Z,10.40
2018-10-19T00:38:41.609Z,10.57
2018-10-19T00:41:09.369Z,11.00
2018-10-19T00:43:37.073Z,11.70
2018-10-19T00:46:04.913Z,13.10
2018-10-19T00:48:32.628Z,12.77
2018-10-19T00:51:00.401Z,11.53
2018-10-19T00:53:28.085Z,12.17
2018-10-19T00:55:55.833Z,12.77
2018-10-19T00:58:23.618Z,13.90
2018-10-19T01:00:51.390Z,15.47
2018-10-19T01:03:19.188Z,13.40
2018-10-19T01:05:46.937Z,15.23
2018-10-19T01:08:14.652Z,14.27
2018-10-19T01:10:42.346Z,17.27
2018-10-19T01:13:10.018Z,12.53
2018-10-19T01:15:37.743Z,13.33
2018-10-19T01:18:05.481Z,16.20
2018-10-19T01:20:33.248Z,15.80
2018-10-19T01:23:01.052Z,13.20
2018-10-19T01:25:29.629Z,15.13
2018-10-19T01:27:57.408Z,16.43
2018-10-19T01:30:25.138Z,18.07
2018-10-19T01:32:52.975Z,17.73
2018-10-19T01:35:20.665Z,18.23
2018-10-19T01:37:48.352Z,18.83
2018-10-19T01:40:16.098Z,19.30
2018-10-19T01:42:43.783Z,20.20
2018-10-19T01:45:12.326Z,20.03
2018-10-19T01:47:40.881Z,17.90
2018-10-19T01:50:09.370Z,19.27
2018-10-19T01:52:37.693Z,18.57
2018-10-19T01:55:05.444Z,18.23
2018-10-19T01:57:33.419Z,18.00
2018-10-19T02:00:01.289Z,16.50
2018-10-19T02:02:28.966Z,19.10
2018-10-19T02:04:56.751Z,19.70
2018-10-19T02:07:24.375Z,22.40
2018-10-19T02:09:52.098Z,20.60
2018-10-19T02:12:19.824Z,18.80
2018-10-19T02:14:47.493Z,21.40
2018-10-19T02:17:15.390Z,17.43
2018-10-19T02:19:42.963Z,20.37
2018-10-19T02:22:10.661Z,20.03
2018-10-19T02:24:38.389Z,17.07
2018-10-19T02:27:06.712Z,23.67
2018-10-19T02:29:34.406Z,17.70
2018-10-19T02:32:02.114Z,21.53
2018-10-19T02:34:29.813Z,21.53
2018-10-19T02:36:57.505Z,25.73
2018-10-19T02:39:25.266Z,16.87
2018-10-19T02:41:56.743Z,23.57
2018-10-19T02:44:24.573Z,24.57
2018-10-19T02:46:52.283Z,26.07
2018-10-19T02:49:20.070Z,21.13
2018-10-19T02:51:47.873Z,21.70
2018-10-19T02:54:15.662Z,19.83
2018-10-19T02:56:43.390Z,23.03
2018-10-19T02:59:11.126Z,20.90
2018-10-19T03:01:38.823Z,20.53
2018-10-19T03:04:06.504Z,23.90
2018-10-19T03:06:34.214Z,20.13
2018-10-19T03:09:01.976Z,21.83
2018-10-19T03:11:29.679Z,21.10
2018-10-19T03:13:57.330Z,18.63
2018-10-19T03:16:25.008Z,18.47
2018-10-19T03:18:52.699Z,20.77
2018-10-19T03:21:20.381Z,18.57
2018-10-19T03:23:48.127Z,18.60
2018-10-19T03:26:15.854Z,19.67
2018-10-19T03:28:43.588Z,19.67
2018-10-19T03:31:11.429Z,21.83
2018-10-19T03:33:39.137Z,21.47
2018-10-19T03:36:06.834Z,22.87
2018-10-19T03:38:34.521Z,21.10
2018-10-19T03:41:02.278Z,22.50
2018-10-19T03:43:29.957Z,21.93
2018-10-19T03:45:57.621Z,24.47
2018-10-19T03:48:25.305Z,23.60
2018-10-19T03:50:53.038Z,23.50
2018-10-19T03:53:20.730Z,23.70
2018-10-19T03:55:48.450Z,24.47
2018-10-19T03:58:16.166Z,21.30
2018-10-19T04:00:43.835Z,25.73
2018-10-19T04:03:11.559Z,20.53
2018-10-19T04:05:39.309Z,21.27
2018-10-19T04:08:07.009Z,19.13
2018-10-19T04:10:34.791Z,20.53
2018-10-19T04:13:02.526Z,19.33
2018-10-19T04:15:30.215Z,22.13
2018-10-19T04:17:57.929Z,20.47
2018-10-19T04:20:25.609Z,19.47
2018-10-19T04:23:00.019Z,22.93
2018-10-19T04:25:27.687Z,22.07
2018-10-19T04:27:55.409Z,23.17
2018-10-19T04:30:23.105Z,21.80
2018-10-19T04:32:50.799Z,23.27
2018-10-19T04:35:18.441Z,20.43
2018-10-19T04:37:46.156Z,19.80
2018-10-19T04:40:19.441Z,20.63
2018-10-19T04:42:47.243Z,21.53
2018-10-19T04:45:15.404Z,23.10
2018-10-19T04:47:43.068Z,20.90
2018-10-19T04:50:10.739Z,22.00
2018-10-19T04:52:38.697Z,21.50
2018-10-19T04:55:11.025Z,23.93
2018-10-19T04:57:38.725Z,25.37
2018-10-19T05:00:06.677Z,23.80
2018-10-19T05:02:35.016Z,23.50
2018-10-19T05:05:03.148Z,24.57
2018-10-19T05:07:30.891Z,25.10
2018-10-19T05:09:58.916Z,23.57
2018-10-19T05:12:26.742Z,25.87
2018-10-19T05:14:54.372Z,26.50
2018-10-19T05:17:22.088Z,24.30
2018-10-19T05:19:49.817Z,23.83
2018-10-19T05:22:17.509Z,23.60
2018-10-19T05:24:45.347Z,27.83
2018-10-19T05:27:13.042Z,27.57
2018-10-19T05:29:40.753Z,27.17
2018-10-19T05:32:12.159Z,28.07
2018-10-19T05:34:39.985Z,25.90
2018-10-19T05:37:07.728Z,26.83
2018-10-19T05:39:35.489Z,28.80
2018-10-19T05:42:03.236Z,21.67
2018-10-19T05:44:30.936Z,22.37
2018-10-19T05:46:58.699Z,23.43
2018-10-19T05:49:26.363Z,28.97
2018-10-19T05:51:56.775Z,25.60
2018-10-19T05:54:25.219Z,30.37
2018-10-19T05:56:52.921Z,27.40
2018-10-19T05:59:20.647Z,30.40
2018-10-19T06:01:48.625Z,26.53
2018-10-19T06:04:16.392Z,32.23
2018-10-19T06:06:44.156Z,31.13
2018-10-19T06:09:11.885Z,26.20
2018-10-19T06:11:40.101Z,28.03
2018-10-19T06:14:08.165Z,28.00
2018-10-19T06:16:35.989Z,29.77
2018-10-19T06:19:03.657Z,31.47
2018-10-19T06:21:31.300Z,29.80
2018-10-19T06:23:58.921Z,30.60
2018-10-19T06:26:26.703Z,29.17
2018-10-19T06:28:54.457Z,30.17
2018-10-19T06:31:22.153Z,27.13
2018-10-19T06:33:49.884Z,28.77
2018-10-19T06:36:17.605Z,30.47
2018-10-19T06:38:45.586Z,30.93
2018-10-19T06:41:13.385Z,31.30
2018-10-19T06:43:41.093Z,27.20
2018-10-19T06:46:08.863Z,32.63
2018-10-19T06:48:36.592Z,30.80
2018-10-19T06:51:04.406Z,30.80
2018-10-19T06:53:32.165Z,29.53
2018-10-19T06:55:59.861Z,30.57
2018-10-19T06:58:31.024Z,30.80
2018-10-19T07:00:58.893Z,36.80
2018-10-19T07:03:26.742Z,31.43
2018-10-19T07:05:54.501Z,29.23
2018-10-19T07:08:22.277Z,28.43
2018-10-19T07:10:49.974Z,31.60
2018-10-19T07:13:17.601Z,28.87
2018-10-19T07:15:45.379Z,33.60
2018-10-19T07:18:13.013Z,35.93
2018-10-19T07:20:40.757Z,31.23
2018-10-19T07:23:08.485Z,31.47
2018-10-19T07:25:36.072Z,28.03
2018-10-19T07:28:04.056Z,27.70
2018-10-19T07:30:31.741Z,30.27
2018-10-19T07:35:34.662Z,28.60
2018-10-19T07:38:02.475Z,29.77
2018-10-19T07:40:30.090Z,30.10
2018-10-19T07:42:57.805Z,35.33
2018-10-19T07:45:25.537Z,26.93
2018-10-19T08:14:18.854Z,29.43
2018-10-19T08:16:46.456Z,28.53
2018-10-19T08:19:14.141Z,27.50
2018-10-19T08:21:41.863Z,24.87
2018-10-19T08:24:09.570Z,24.13
2018-10-19T08:26:37.273Z,32.20
2018-10-19T08:29:05.483Z,29.63
2018-10-19T08:31:33.153Z,26.27
2018-10-19T08:34:01.097Z,27.80
2018-10-19T08:36:28.709Z,30.13
2018-10-19T08:38:56.452Z,27.17
2018-10-19T08:41:24.326Z,23.40
2018-10-19T08:43:51.937Z,21.90
2018-10-19T08:46:35.765Z,26.13
2018-10-19T08:49:04.023Z,26.93
2018-10-19T08:51:31.709Z,23.93
2018-10-19T08:53:59.385Z,27.73
2018-10-19T08:56:27.049Z,27.13
2018-10-19T08:58:54.772Z,24.83
2018-10-19T09:01:22.653Z,25.10
2018-10-19T09:03:50.365Z,22.87
2018-10-19T09:06:18.053Z,22.43
2018-10-19T09:08:45.707Z,23.87
2018-10-19T09:11:13.478Z,28.77
2018-10-19T09:13:41.151Z,22.40
2018-10-19T09:16:09.067Z,26.70
2018-10-19T09:18:36.849Z,26.53
2018-10-19T09:21:04.665Z,22.67
2018-10-19T09:23:32.277Z,26.10
2018-10-19T09:25:59.993Z,25.17
2018-10-19T09:28:27.672Z,26.27
2018-10-19T09:30:55.433Z,21.43
2018-10-19T09:33:23.128Z,24.73
2018-10-19T09:35:50.822Z,22.47
2018-10-19T09:38:18.491Z,24.83
2018-10-19T09:40:46.181Z,26.80
2018-10-19T09:43:13.930Z,22.33
2018-10-19T09:45:41.669Z,25.03
2018-10-19T09:48:09.420Z,21.40
2018-10-19T09:50:37.054Z,22.73
2018-10-19T09:53:05.111Z,22.97
2018-10-19T09:55:32.742Z,24.60
2018-10-19T09:58:00.468Z,21.33
2018-10-19T10:00:34.101Z,20.83
2018-10-19T10:03:01.859Z,24.23
2018-10-19T10:05:29.508Z,20.27
2018-10-19T10:07:57.385Z,24.17
2018-10-19T10:10:25.077Z,22.00
2018-10-19T10:12:52.832Z,23.87
2018-10-19T10:15:20.647Z,19.60
2018-10-19T10:17:48.232Z,22.20
2018-10-19T10:20:15.877Z,20.47
2018-10-19T10:22:43.540Z,20.60
2018-10-19T10:25:11.230Z,17.93
2018-10-19T10:27:39.083Z,19.97
2018-10-19T10:30:08.277Z,20.90
2018-10-19T10:32:35.960Z,21.63
2018-10-19T10:35:04.713Z,25.77
2018-10-19T10:37:32.410Z,17.80
2018-10-19T10:40:00.110Z,19.37
2018-10-19T10:42:27.825Z,22.30
2018-10-19T10:44:55.563Z,20.70
2018-10-19T10:47:23.256Z,20.20
2018-10-19T10:49:50.909Z,18.93
2018-10-19T10:52:18.753Z,16.97
2018-10-19T10:54:46.393Z,21.23
2018-10-19T10:57:14.086Z,17.83
2018-10-19T10:59:41.750Z,17.80
2018-10-19T11:02:09.536Z,27.60
2018-10-19T11:04:37.241Z,19.43
2018-10-19T11:07:05.047Z,18.47
2018-10-19T11:09:32.744Z,18.20
2018-10-19T11:12:00.436Z,19.53
2018-10-19T11:14:28.117Z,23.30
2018-10-19T11:16:55.956Z,21.27
2018-10-19T11:19:23.649Z,18.87
2018-10-19T11:21:51.318Z,20.43
2018-10-19T11:24:19.034Z,19.77
2018-10-19T11:26:46.831Z,20.63
2018-10-19T11:29:14.688Z,18.97
2018-10-19T11:31:42.375Z,18.33
2018-10-19T11:34:10.119Z,18.60
2018-10-19T11:36:37.748Z,18.43
2018-10-19T11:39:06.785Z,16.60
2018-10-19T11:41:34.405Z,17.67
2018-10-19T11:44:02.309Z,17.33
2018-10-19T11:46:30.050Z,19.37
2018-10-19T11:48:57.886Z,18.83
2018-10-19T11:51:25.561Z,20.73
2018-10-19T11:53:53.225Z,17.67
2018-10-19T11:56:20.999Z,20.27
2018-10-19T11:58:48.659Z,21.47
2018-10-19T12:01:16.412Z,15.83
2018-10-19T12:03:44.134Z,19.53
2018-10-19T12:06:11.797Z,19.47
2018-10-19T12:08:39.549Z,18.50
2018-10-19T12:11:07.253Z,19.00
2018-10-19T12:13:34.877Z,18.37
2018-10-19T12:16:02.541Z,19.67
2018-10-19T12:18:30.209Z,16.60
2018-10-19T12:20:57.876Z,18.70
2018-10-19T12:23:25.483Z,16.20
2018-10-19T12:25:53.268Z,17.00
2018-10-19T12:28:20.874Z,17.83
2018-10-19T12:30:48.550Z,16.67
2018-10-19T12:33:16.329Z,16.60
2018-10-19T12:35:43.909Z,17.83
2018-10-19T12:38:11.656Z,19.83
2018-10-19T12:40:39.391Z,18.67
2018-10-19T12:43:07.064Z,23.63
2018-10-19T12:46:51.170Z,17.57
2018-10-19T12:49:20.220Z,26.70
2018-10-19T12:51:47.896Z,19.37
2018-10-19T12:54:15.893Z,17.63
2018-10-19T12:56:43.564Z,21.10
2018-10-19T12:59:11.278Z,18.17
2018-10-19T13:01:39.000Z,19.43
2018-10-19T13:04:06.770Z,19.43
2018-10-19T13:06:34.480Z,17.90
2018-10-19T13:09:03.934Z,19.33
2018-10-19T13:11:31.568Z,22.33
2018-10-19T13:13:59.280Z,16.47
2018-10-19T13:16:27.025Z,22.40
2018-10-19T13:18:54.724Z,20.80
2018-10-19T13:21:22.468Z,19.70
2018-10-19T13:23:50.213Z,21.37
2018-10-19T13:26:17.937Z,20.03
2018-10-19T13:28:45.697Z,22.03
2018-10-19T13:31:13.343Z,19.73
2018-10-19T13:33:41.016Z,18.67
2018-10-19T13:36:08.780Z,20.07
2018-10-19T13:38:36.445Z,20.27
2018-10-19T13:41:04.200Z,17.97
2018-10-19T13:43:32.774Z,18.57
2018-10-19T13:46:01.519Z,20.73
2018-10-19T13:48:29.754Z,21.73
2018-10-19T13:50:58.686Z,24.40
2018-10-19T13:53:27.196Z,20.13
2018-10-19T13:55:55.677Z,20.23
2018-10-19T13:58:23.742Z,21.07
2018-10-19T14:00:52.313Z,19.47
2018-10-19T14:03:21.256Z,20.37
2018-10-19T14:05:49.817Z,21.07
2018-10-19T14:08:18.375Z,19.90
2018-10-19T14:10:45.996Z,20.40
2018-10-19T14:13:14.180Z,21.50
2018-10-19T14:15:42.640Z,22.83
2018-10-19T14:18:11.711Z,22.90
2018-10-19T14:20:39.944Z,21.90
2018-10-19T14:23:08.555Z,20.90
2018-10-19T14:25:36.764Z,23.70
2018-10-19T14:28:05.657Z,21.40
2018-10-19T14:30:34.100Z,19.53
2018-10-19T14:33:02.270Z,19.57
2018-10-19T14:35:30.365Z,23.43
2018-10-19T14:38:02.960Z,22.17
2018-10-19T14:40:33.341Z,21.83
2018-10-19T14:43:01.560Z,20.87
2018-10-19T14:45:29.716Z,21.70
2018-10-19T14:48:03.873Z,20.93
2018-10-19T14:50:32.445Z,21.23
2018-10-19T14:53:01.172Z,22.10
2018-10-19T14:55:30.328Z,21.30
2018-10-19T14:57:58.783Z,22.63
2018-10-19T15:00:26.929Z,25.93
2018-10-19T15:02:54.784Z,23.47
2018-10-19T15:05:26.218Z,25.90
2018-10-19T15:07:55.092Z,23.40
2018-10-19T15:10:23.464Z,23.50
2018-10-19T15:12:50.966Z,23.57
2018-10-19T15:15:20.050Z,26.90
2018-10-19T15:17:47.778Z,24.50
2018-10-19T15:20:16.085Z,24.20
2018-10-19T15:22:44.057Z,22.37
2018-10-19T15:25:11.920Z,25.47
2018-10-19T15:27:40.828Z,25.50
2018-10-19T15:30:10.193Z,25.70
2018-10-19T15:32:37.876Z,25.40
2018-10-19T15:35:06.611Z,24.60
2018-10-19T15:37:34.266Z,29.93
2018-10-19T15:40:01.981Z,22.23
2018-10-19T15:42:29.710Z,22.80
2018-10-19T15:44:57.442Z,23.53
2018-10-19T15:47:27.571Z,25.17
2018-10-19T15:49:56.860Z,24.83
2018-10-19T15:52:24.675Z,30.50
2018-10-19T15:54:52.741Z,26.03
2018-10-19T15:57:20.478Z,26.33
2018-10-19T15:59:48.249Z,28.20
2018-10-19T16:02:16.498Z,25.43
2018-10-19T16:04:44.621Z,27.30
2018-10-19T16:07:12.518Z,30.63
2018-10-19T16:09:40.218Z,29.80
2018-10-19T16:12:07.920Z,32.50
2018-10-19T16:14:35.517Z,31.13
2018-10-19T16:17:03.241Z,28.83
2018-10-19T16:19:31.020Z,32.90
2018-10-19T16:21:58.705Z,32.60
2018-10-19T16:24:26.365Z,31.53
2018-10-19T16:26:54.072Z,31.70
2018-10-19T16:29:21.697Z,30.83
2018-10-19T16:31:49.304Z,28.43
2018-10-19T16:34:17.049Z,26.97
2018-10-19T16:36:44.809Z,28.13
2018-10-19T16:39:12.545Z,29.73
2018-10-19T16:41:40.204Z,30.50
2018-10-19T16:44:07.921Z,27.63
2018-10-19T16:46:35.744Z,32.90
2018-10-19T16:49:03.478Z,34.17
2018-10-19T16:51:34.671Z,25.53
2018-10-19T16:54:02.534Z,26.57
2018-10-19T16:56:30.161Z,28.60
2018-10-19T16:58:57.870Z,24.10
2018-10-19T17:01:25.572Z,26.67
2018-10-19T17:03:53.224Z,28.00
2018-10-19T17:06:20.861Z,27.23
2018-10-19T17:08:48.774Z,28.57
2018-10-19T17:11:16.422Z,30.07
2018-10-19T17:13:44.114Z,26.53
2018-10-19T17:16:11.857Z,29.37
2018-10-19T17:18:40.133Z,26.80
2018-10-19T17:21:07.899Z,28.37
2018-10-19T17:23:35.706Z,27.37
2018-10-19T17:26:03.917Z,26.60
2018-10-19T17:28:40.901Z,32.90
2018-10-19T17:31:08.688Z,31.90
2018-10-19T17:33:36.470Z,31.57
2018-10-19T17:36:04.349Z,34.90
2018-10-19T17:38:32.094Z,32.73
2018-10-19T17:40:59.863Z,34.77
2018-10-19T17:43:27.545Z,35.87
2018-10-19T17:45:56.320Z,34.07
2018-10-19T17:48:24.284Z,33.53
2018-10-19T17:50:52.164Z,33.17
2018-10-19T17:53:20.056Z,34.07
2018-10-19T17:55:50.212Z,24.23
2018-10-19T17:58:18.983Z,31.23
2018-10-19T18:00:47.701Z,29.57
2018-10-19T18:03:15.835Z,27.60
2018-10-19T18:05:49.234Z,27.33
2018-10-19T18:08:17.290Z,29.33
2018-10-19T18:10:52.545Z,27.53
2018-10-19T18:13:28.281Z,30.40
2018-10-19T18:15:58.694Z,27.87
2018-10-19T18:18:26.673Z,27.53
2018-10-19T18:20:54.408Z,32.87
2018-10-19T18:23:22.937Z,28.20
2018-10-19T18:25:54.398Z,30.37
2018-10-19T18:28:25.279Z,28.53
2018-10-19T18:30:55.333Z,37.40
2018-10-19T18:33:23.449Z,27.00
2018-10-19T18:35:51.393Z,30.80
2018-10-19T18:38:19.130Z,30.53
2018-10-19T18:40:46.801Z,30.57
2018-10-19T18:43:16.631Z,31.20
2018-10-19T18:45:44.317Z,29.90
2018-10-19T18:48:13.259Z,25.97
2018-10-19T18:50:43.234Z,31.40
2018-10-19T18:53:17.842Z,31.37
2018-10-19T18:55:45.440Z,29.10
2018-10-19T18:58:14.679Z,28.53
2018-10-19T19:00:42.803Z,30.20
2018-10-19T19:03:12.495Z,30.73
2018-10-19T19:05:41.150Z,28.57
2018-10-19T19:08:11.186Z,29.00
2018-10-19T19:10:39.579Z,29.40
2018-10-19T19:13:13.162Z,28.00
2018-10-19T19:15:52.723Z,29.70
2018-10-19T19:18:20.757Z,27.67
2018-10-19T19:20:49.566Z,27.23
2018-10-19T19:23:17.969Z,30.07
2018-10-19T19:25:52.253Z,26.30
2018-10-19T19:28:20.377Z,27.90
2018-10-19T19:30:48.304Z,28.50
2018-10-19T19:33:22.304Z,27.73
2018-10-19T19:35:50.265Z,25.73
2018-10-19T19:38:17.956Z,30.83
2018-10-19T19:40:51.668Z,29.53
2018-10-19T19:43:23.777Z,29.03
2018-10-19T19:45:51.557Z,29.23
2018-10-19T19:49:27.655Z,28.73
2018-10-19T19:51:55.461Z,25.50
2018-10-19T19:54:25.169Z,26.87
2018-10-19T19:56:52.837Z,27.73
2018-10-19T19:59:21.070Z,26.63
2018-10-19T20:04:15.987Z,24.57
2018-10-19T20:06:45.901Z,27.77
2018-10-19T20:09:13.689Z,27.30
2018-10-19T20:11:41.485Z,29.30
2018-10-19T20:14:09.412Z,27.30
2018-10-19T20:16:40.552Z,26.10
2018-10-19T20:19:08.594Z,27.17
2018-10-19T20:21:39.667Z,24.47
2018-10-19T20:24:07.579Z,23.90
2018-10-19T20:26:35.247Z,28.37
2018-10-19T20:29:03.000Z,25.67
2018-10-19T20:31:30.592Z,25.20
2018-10-19T20:33:58.281Z,24.07
2018-10-19T20:36:26.062Z,26.73
2018-10-19T20:38:53.824Z,25.93
2018-10-19T20:41:21.789Z,27.90
2018-10-19T20:43:49.513Z,26.30
2018-10-19T20:46:18.314Z,29.90
2018-10-19T20:48:46.256Z,25.03
2018-10-19T20:51:13.961Z,29.20
2018-10-19T20:53:45.986Z,27.47
2018-10-19T20:56:13.717Z,27.17
2018-10-19T20:58:41.344Z,28.53
2018-10-19T21:01:08.949Z,24.93
2018-10-19T21:03:36.701Z,28.63
2018-10-19T21:06:05.101Z,32.37
2018-10-19T21:08:32.854Z,28.23
2018-10-19T21:11:00.611Z,30.90
2018-10-19T21:13:31.468Z,28.27
2018-10-19T21:15:59.161Z,30.73
2018-10-19T21:18:28.072Z,30.27
2018-10-19T21:20:55.702Z,29.13
2018-10-19T21:23:23.357Z,31.37
2018-10-19T21:25:51.017Z,31.97
2018-10-19T21:28:18.629Z,29.43
2018-10-19T21:30:46.301Z,34.07
2018-10-19T21:33:14.064Z,31.13
2018-10-19T21:35:41.738Z,33.23
2018-10-19T21:38:11.204Z,32.13
2018-10-19T21:40:38.837Z,38.13
2018-10-19T21:43:06.524Z,32.53
2018-10-19T21:45:34.265Z,33.33
2018-10-19T21:48:02.001Z,29.60
2018-10-19T21:50:29.691Z,35.23
2018-10-19T21:52:57.546Z,31.30
2018-10-19T21:55:25.182Z,37.47
2018-10-19T21:57:53.260Z,34.67
2018-10-19T22:00:21.691Z,35.03
2018-10-19T22:02:49.513Z,35.00
2018-10-19T22:05:17.205Z,31.70
2018-10-19T22:07:45.099Z,25.93
2018-10-19T22:10:12.661Z,31.37
2018-10-19T22:12:40.332Z,37.67
2018-10-19T22:15:08.766Z,33.03
2018-10-19T22:17:36.634Z,35.73
2018-10-19T22:20:04.680Z,35.73
2018-10-19T22:22:32.732Z,34.43
2018-10-19T22:25:00.538Z,35.07
2018-10-19T22:27:28.102Z,40.97
2018-10-19T22:29:55.847Z,34.83
2018-10-19T22:32:23.833Z,18.23
2018-10-19T22:34:51.517Z,17.87
2018-10-19T22:37:19.194Z,17.80
2018-10-19T22:39:46.872Z,31.63
2018-10-19T22:42:14.500Z,34.50
2018-10-19T22:44:42.108Z,31.43
2018-10-19T22:47:09.826Z,29.23
2018-10-19T22:49:37.521Z,35.73
2018-10-19T22:52:05.311Z,37.47
2018-10-19T22:54:33.006Z,30.83
2018-10-19T22:57:00.723Z,36.20
2018-10-19T22:59:28.429Z,33.03
2018-10-19T23:01:56.133Z,31.90
2018-10-19T23:04:23.917Z,14.50
2018-10-19T23:06:51.576Z,18.87
2018-10-19T23:09:19.253Z,26.27
2018-10-19T23:11:46.944Z,27.27
2018-10-19T23:14:14.625Z,32.60
2018-10-19T23:16:42.317Z,35.40
2018-10-19T23:19:10.180Z,36.80
2018-10-19T23:21:37.834Z,37.23
2018-10-19T23:24:06.105Z,35.87
2018-10-19T23:26:33.966Z,36.50
2018-10-19T23:29:01.734Z,35.00
2018-10-19T23:31:29.514Z,39.40
2018-10-19T23:33:57.101Z,40.63
2018-10-19T23:36:25.049Z,43.73
2018-10-19T23:38:52.803Z,44.23
2018-10-19T23:41:20.496Z,46.63
2018-10-19T23:43:48.301Z,44.00
2018-10-19T23:46:15.925Z,45.50
2018-10-19T23:48:43.653Z,45.50
2018-10-19T23:51:15.279Z,38.00
2018-10-19T23:53:43.038Z,41.47
2018-10-19T23:56:10.660Z,39.77
2018-10-19T23:58:38.398Z,44.73
